Time;durP1;ratioP1;P1;durP2;ratioP2;P2;SDS_P1;SDS_P2;PMS_P1;PMS_P2;Temp;Humidity;BMP_temperature;BMP_pressure;BME280_temperature;BME280_humidity;BME280_pressure;Samples;Min_cycle;Max_cycle;Signal;HPM_P1;HPM_P2
2022/02/04 00:07:16;;;;;;;35.97;21.02;;;6.90;99.90;;;;;;5112522;27;20034;-63
2022/02/04 00:23:17;;;;;;;35.95;23.05;;;6.90;99.90;;;;;;5110913;28;20023;-63
2022/02/04 00:26:09;;;;;;;38.10;23.48;;;6.80;99.90;;;;;;5110286;28;20497;-63
2022/02/04 00:33:37;;;;;;;36.53;21.35;;;6.90;99.90;;;;;;5110447;28;20051;-63
2022/02/04 00:36:13;;;;;;;42.30;24.13;;;6.90;99.90;;;;;;5110137;28;20015;-63
2022/02/04 00:38:43;;;;;;;35.50;21.05;;;6.90;99.90;;;;;;5110393;28;20020;-63
2022/02/04 00:41:11;;;;;;;36.42;20.75;;;6.90;99.90;;;;;;5108323;28;20102;-63
2022/02/04 00:43:38;;;;;;;37.88;20.50;;;6.90;99.90;;;;;;5092529;28;20461;-64
2022/02/04 00:46:15;;;;;;;38.60;21.80;;;6.90;99.90;;;;;;5091777;28;20036;-64
2022/02/04 00:48:48;;;;;;;34.25;21.10;;;6.90;99.90;;;;;;5091054;28;20222;-63
2022/02/04 01:28:26;;;;;;;33.95;20.90;;;7.00;99.90;;;;;;5114000;28;20112;-51
2022/02/04 01:30:54;;;;;;;34.22;20.08;;;6.90;99.90;;;;;;5114089;28;20022;-53
2022/02/04 01:33:19;;;;;;;37.83;22.58;;;7.00;99.90;;;;;;5114126;28;20481;-54
2022/02/04 01:35:46;;;;;;;35.05;19.95;;;7.00;99.90;;;;;;5113764;28;20106;-55
2022/02/04 01:38:12;;;;;;;35.63;21.55;;;6.90;99.90;;;;;;5114051;28;20046;-51
2022/02/04 01:40:38;;;;;;;33.22;19.25;;;6.90;99.90;;;;;;5095383;28;20475;-51
2022/02/04 01:43:03;;;;;;;40.30;22.83;;;6.90;99.90;;;;;;5113828;28;20077;-58
2022/02/04 01:45:29;;;;;;;36.22;21.10;;;6.90;99.90;;;;;;5113480;28;20062;-54
2022/02/04 01:47:55;;;;;;;34.35;21.55;;;6.90;99.90;;;;;;5095596;28;20023;-55
2022/02/04 01:50:22;;;;;;;33.33;20.15;;;6.90;99.90;;;;;;5095311;28;20065;-52
2022/02/04 01:52:48;;;;;;;32.47;19.75;;;6.90;99.90;;;;;;5113624;28;20030;-55
2022/02/04 01:55:15;;;;;;;34.67;20.00;;;6.90;99.90;;;;;;5113154;28;20024;-56
2022/02/04 01:57:41;;;;;;;38.58;19.45;;;6.90;99.90;;;;;;5113586;28;20023;-57
2022/02/04 02:00:07;;;;;;;32.72;19.88;;;6.90;99.90;;;;;;5095468;28;20055;-53
2022/02/04 02:02:33;;;;;;;33.97;19.55;;;6.90;99.90;;;;;;5095329;28;20119;-53
2022/02/04 02:04:58;;;;;;;33.72;18.60;;;6.90;99.90;;;;;;5113161;28;20070;-52
2022/02/04 02:07:26;;;;;;;32.40;18.33;;;6.90;99.90;;;;;;5113443;28;20023;-53
2022/02/04 02:12:22;;;;;;;28.40;16.70;;;6.90;99.90;;;;;;5113623;28;20624;-53
2022/02/04 02:14:57;;;;;;;33.85;18.00;;;6.90;99.90;;;;;;5094703;28;20122;-54
2022/02/04 02:47:12;;;;;;;32.72;18.70;;;6.90;99.90;;;;;;5112688;28;20027;-53
2022/02/04 03:02:44;;;;;;;32.63;19.33;;;6.90;99.90;;;;;;5112748;28;20399;-54
2022/02/04 03:05:10;;;;;;;35.67;20.90;;;6.90;99.90;;;;;;5112354;28;20024;-57
2022/02/04 03:07:35;;;;;;;33.78;18.92;;;6.90;99.90;;;;;;5112656;28;20027;-53
2022/02/04 03:10:01;;;;;;;34.25;19.70;;;6.80;99.90;;;;;;5094069;28;20023;-56
2022/02/04 03:12:28;;;;;;;36.53;21.70;;;6.80;99.90;;;;;;5112353;28;20030;-56
2022/02/04 03:14:54;;;;;;;35.28;21.08;;;6.80;99.90;;;;;;5112281;28;20031;-54
2022/02/04 03:17:19;;;;;;;36.15;20.17;;;6.80;99.90;;;;;;5112511;28;20480;-57
2022/02/04 03:19:49;;;;;;;35.67;21.75;;;6.80;99.90;;;;;;5112434;28;20051;-54
2022/02/04 03:22:15;;;;;;;38.20;24.33;;;6.80;99.90;;;;;;5112346;28;20043;-55
2022/02/04 03:24:44;;;;;;;36.42;21.83;;;6.80;99.90;;;;;;5112046;28;20443;-54
2022/02/04 03:27:12;;;;;;;42.75;24.92;;;6.80;99.90;;;;;;5094027;28;20069;-54
2022/02/04 03:29:59;;;;;;;42.83;25.83;;;6.80;99.90;;;;;;5094052;28;20555;-53
2022/02/04 03:32:24;;;;;;;40.78;22.85;;;6.90;99.90;;;;;;5112158;28;20032;-55
2022/02/04 03:34:50;;;;;;;39.60;24.85;;;6.90;99.90;;;;;;5111856;28;20031;-55
2022/02/04 03:37:16;;;;;;;42.78;26.40;;;6.80;99.90;;;;;;5112324;28;20020;-54
2022/02/04 03:39:41;;;;;;;41.72;24.27;;;6.80;99.90;;;;;;5112221;28;20028;-51
2022/02/04 03:42:07;;;;;;;45.00;26.50;;;6.80;99.90;;;;;;5113071;28;20445;-55
2022/02/04 03:44:33;;;;;;;40.47;25.50;;;6.80;99.90;;;;;;5112338;28;20024;-56
2022/02/04 03:46:59;;;;;;;38.42;23.13;;;6.80;99.90;;;;;;5112307;28;20027;-52
2022/02/04 03:49:25;;;;;;;42.20;26.00;;;6.80;99.90;;;;;;5112207;28;20081;-57
2022/02/04 03:51:50;;;;;;;38.67;24.35;;;6.80;99.90;;;;;;5112491;28;20032;-54
2022/02/04 03:54:16;;;;;;;43.97;24.65;;;6.80;99.90;;;;;;5094063;28;20032;-53
2022/02/04 03:56:42;;;;;;;40.50;23.25;;;6.80;99.90;;;;;;5112218;28;20031;-53
2022/02/04 03:59:07;;;;;;;40.55;24.50;;;6.80;99.90;;;;;;5112404;28;20055;-52
2022/02/04 04:01:33;;;;;;;38.45;22.52;;;6.80;99.90;;;;;;5112358;28;20023;-55
2022/02/04 04:03:59;;;;;;;41.22;23.88;;;6.80;99.90;;;;;;5115258;28;20026;-53
2022/02/04 04:06:24;;;;;;;38.70;22.88;;;6.80;99.90;;;;;;5115714;28;20059;-53
2022/02/04 04:08:53;;;;;;;38.75;22.60;;;6.80;99.90;;;;;;5115619;28;20085;-52
2022/02/04 04:11:19;;;;;;;39.10;23.67;;;6.80;99.90;;;;;;5115853;28;20022;-56
2022/02/04 04:13:44;;;;;;;34.25;21.48;;;6.80;99.90;;;;;;5115708;28;20027;-53
2022/02/04 04:16:10;;;;;;;38.63;21.42;;;6.80;99.90;;;;;;5115471;28;20020;-54
2022/02/04 04:18:36;;;;;;;35.45;21.65;;;6.80;99.90;;;;;;5097194;28;20391;-56
2022/02/04 04:21:01;;;;;;;37.70;20.67;;;6.80;99.90;;;;;;5115567;28;20041;-54
2022/02/04 04:23:28;;;;;;;35.22;21.80;;;6.90;99.90;;;;;;5115436;28;20038;-52
2022/02/04 04:25:54;;;;;;;36.25;21.75;;;6.90;99.90;;;;;;5115239;28;20048;-54
2022/02/04 04:28:19;;;;;;;37.42;21.92;;;6.90;99.90;;;;;;5115648;28;20107;-54
2022/02/04 04:30:45;;;;;;;36.13;19.90;;;6.90;99.90;;;;;;5115343;28;20483;-51
2022/02/04 04:33:11;;;;;;;34.47;20.08;;;6.80;99.90;;;;;;5115809;28;20081;-53
2022/02/04 04:35:38;;;;;;;37.55;20.92;;;6.90;99.90;;;;;;5114777;28;20444;-52
2022/02/04 04:41:03;;;;;;;32.53;19.80;;;6.90;99.90;;;;;;5115213;28;20019;-53
2022/02/04 05:29:39;;;;;;;28.42;16.00;;;7.20;99.90;;;;;;5114032;28;20030;-55
2022/02/04 05:32:06;;;;;;;24.92;14.57;;;7.20;99.90;;;;;;5113915;28;20020;-55
2022/02/04 05:34:32;;;;;;;25.20;15.35;;;7.20;99.90;;;;;;5113595;28;20028;-53
2022/02/04 05:37:04;;;;;;;25.48;15.55;;;7.20;99.90;;;;;;5113483;28;20378;-51
2022/02/04 05:39:37;;;;;;;25.33;13.98;;;7.20;99.90;;;;;;5113879;28;20479;-56
2022/02/04 05:42:05;;;;;;;27.00;14.32;;;7.20;99.90;;;;;;5114265;28;20028;-53
2022/02/04 05:44:35;;;;;;;25.48;14.90;;;7.20;99.90;;;;;;5095153;28;20086;-50
2022/02/04 05:47:09;;;;;;;23.98;14.40;;;7.20;99.90;;;;;;5113506;28;20039;-55
2022/02/04 05:49:36;;;;;;;24.98;13.35;;;7.20;99.90;;;;;;5113662;28;20020;-52
2022/02/04 05:52:11;;;;;;;26.45;15.15;;;7.20;99.90;;;;;;5094942;28;20072;-53
2022/02/04 05:57:11;;;;;;;24.55;14.50;;;7.30;99.90;;;;;;5113351;28;20028;-51
2022/02/04 06:02:33;;;;;;;23.95;13.63;;;7.20;99.90;;;;;;5113797;28;20103;-54
2022/02/04 06:05:13;;;;;;;22.90;14.02;;;7.20;99.90;;;;;;5094917;28;20425;-53
2022/02/04 06:08:13;;;;;;;26.63;14.90;;;7.20;99.90;;;;;;5094915;28;20114;-56
2022/02/04 06:10:54;;;;;;;26.33;14.82;;;7.20;99.90;;;;;;5112799;28;20479;-52
2022/02/04 06:23:52;;;;;;;25.70;13.65;;;7.30;99.90;;;;;;5112944;28;20031;-54
2022/02/04 06:26:18;;;;;;;23.85;13.25;;;7.30;99.90;;;;;;5112027;28;20028;-52
2022/02/04 06:28:44;;;;;;;25.73;14.02;;;7.30;99.90;;;;;;5112728;28;20098;-53
2022/02/04 06:31:10;;;;;;;24.38;13.13;;;7.30;99.90;;;;;;5113409;28;20387;-56
2022/02/04 06:33:36;;;;;;;22.98;13.00;;;7.30;99.90;;;;;;5113590;28;20024;-56
2022/02/04 06:36:02;;;;;;;25.77;13.50;;;7.30;99.90;;;;;;5112589;28;20027;-54
2022/02/04 06:38:27;;;;;;;24.58;12.98;;;7.30;99.90;;;;;;5112731;28;20521;-51
2022/02/04 06:40:53;;;;;;;25.33;13.20;;;7.30;99.90;;;;;;5094677;28;20111;-55
2022/02/04 06:43:18;;;;;;;23.52;13.20;;;7.30;99.90;;;;;;5112926;28;20024;-53
2022/02/04 06:45:44;;;;;;;23.17;13.05;;;7.30;99.90;;;;;;5112264;28;20032;-54
2022/02/04 06:48:10;;;;;;;24.98;14.05;;;7.40;99.90;;;;;;5093917;28;20102;-54
2022/02/04 06:50:36;;;;;;;22.70;13.27;;;7.30;99.90;;;;;;5088512;28;20035;-59
2022/02/04 06:53:03;;;;;;;26.50;13.88;;;7.30;99.90;;;;;;5110012;28;20035;-53
2022/02/04 06:55:29;;;;;;;24.90;13.03;;;7.30;99.90;;;;;;5110798;28;20020;-52
2022/02/04 06:57:56;;;;;;;27.05;14.25;;;7.30;99.90;;;;;;5093330;22;20397;-65
2022/02/04 07:00:25;;;;;;;24.98;13.27;;;7.20;99.90;;;;;;5085121;28;20483;-64
2022/02/04 07:02:52;;;;;;;23.88;14.07;;;7.30;99.90;;;;;;5090099;28;20409;-64
2022/02/04 07:05:18;;;;;;;22.60;13.13;;;7.30;99.90;;;;;;5090060;28;20545;-64
2022/02/04 07:10:55;;;;;;;23.55;13.38;;;7.20;99.90;;;;;;5072537;28;20047;-64
2022/02/04 07:13:25;;;;;;;24.25;12.13;;;7.30;99.90;;;;;;5069961;28;20055;-64
2022/02/04 07:16:23;;;;;;;23.23;12.57;;;7.30;99.90;;;;;;5067961;28;20118;-63
2022/02/04 07:21:26;;;;;;;21.55;11.20;;;7.50;99.90;;;;;;5069525;28;20028;-64
2022/02/04 07:23:51;;;;;;;21.65;10.98;;;7.50;99.90;;;;;;5069622;28;20017;-65
2022/02/04 07:26:17;;;;;;;22.48;11.35;;;7.50;99.90;;;;;;5087307;28;20020;-64
2022/02/04 07:28:42;;;;;;;21.90;10.50;;;7.50;99.90;;;;;;5089820;28;20020;-64
2022/02/04 07:31:08;;;;;;;21.88;10.50;;;7.50;99.90;;;;;;5088701;28;20028;-65
2022/02/04 07:33:44;;;;;;;21.20;10.65;;;7.50;99.90;;;;;;5090031;28;20027;-65
2022/02/04 07:40:53;;;;;;;20.83;10.90;;;7.40;99.90;;;;;;5092617;28;20487;-64
2022/02/04 07:41:37;;;;;;;19.67;10.32;;;7.40;99.90;;;;;;5093875;28;20108;-64
2022/02/04 07:44:03;;;;;;;21.00;10.55;;;7.40;99.90;;;;;;5093257;28;20047;-63
2022/02/04 07:46:29;;;;;;;19.75;10.45;;;7.40;99.90;;;;;;5093732;28;20313;-60
2022/02/04 07:48:55;;;;;;;19.63;9.50;;;7.40;99.90;;;;;;5093467;28;20020;-64
2022/02/04 07:51:20;;;;;;;20.65;10.00;;;7.40;99.90;;;;;;5093509;28;20020;-63
2022/02/04 07:53:46;;;;;;;19.90;10.32;;;7.50;99.90;;;;;;5093590;28;20483;-63
2022/02/04 07:56:18;;;;;;;19.40;10.15;;;7.50;99.90;;;;;;5093456;28;20017;-64
2022/02/04 07:58:52;;;;;;;18.70;9.48;;;7.50;99.90;;;;;;5114037;28;20027;-63
2022/02/04 08:01:24;;;;;;;21.67;9.80;;;7.50;99.90;;;;;;5114222;28;20036;-64
2022/02/04 08:03:55;;;;;;;22.20;10.85;;;7.60;99.90;;;;;;5113427;28;20083;-65
2022/02/04 08:06:23;;;;;;;19.85;10.05;;;7.60;99.90;;;;;;5094881;28;20036;-64
2022/02/04 08:09:14;;;;;;;19.47;9.70;;;7.60;99.90;;;;;;5095607;28;20019;-63
2022/02/04 08:17:06;;;;;;;18.05;9.18;;;7.70;99.90;;;;;;5113833;28;20411;-66
2022/02/04 08:22:36;;;;;;;17.50;8.90;;;7.70;99.90;;;;;;5075603;28;20031;-64
2022/02/04 08:25:16;;;;;;;18.95;9.32;;;7.80;99.90;;;;;;5112893;28;20043;-65
2022/02/04 08:35:57;;;;;;;;;;;7.90;99.90;;;;;;5112895;28;20039;-65
2022/02/04 08:56:34;;;;;;;17.75;8.52;;;7.90;99.90;;;;;;5113020;28;20518;-64
2022/02/04 08:59:07;;;;;;;17.50;8.60;;;7.90;99.90;;;;;;5112802;28;20050;-62
2022/02/04 09:01:37;;;;;;;18.10;9.05;;;7.90;99.90;;;;;;5112880;28;20019;-64
2022/02/04 09:04:07;;;;;;;18.23;9.43;;;7.90;99.90;;;;;;5094034;28;20055;-62
2022/02/04 09:06:43;;;;;;;18.95;10.05;;;7.80;99.90;;;;;;5112645;28;20020;-63
2022/02/04 09:09:15;;;;;;;20.30;10.77;;;7.60;99.90;;;;;;5112632;28;20071;-64
2022/02/04 09:11:46;;;;;;;22.20;12.18;;;7.60;99.90;;;;;;5112758;28;20015;-64
2022/02/04 09:19:29;;;;;;;18.83;12.48;;;7.30;99.90;;;;;;5112079;28;20103;-64
2022/02/04 09:24:23;;;;;;;;;;;7.20;99.90;;;;;;5112462;28;20461;-66
2022/02/04 09:26:51;;;;;;;21.88;13.80;;;7.20;99.90;;;;;;5112574;28;19920;-66
2022/02/04 09:29:17;;;;;;;20.75;13.60;;;7.20;99.90;;;;;;5112439;28;20027;-66
2022/02/04 09:31:42;;;;;;;19.83;14.45;;;7.20;99.90;;;;;;5112399;28;20047;-55
2022/02/04 09:34:09;;;;;;;21.83;14.02;;;7.20;99.90;;;;;;5111268;28;20063;-51
2022/02/04 09:36:35;;;;;;;20.05;14.63;;;7.20;99.90;;;;;;5112471;28;20487;-54
2022/02/04 09:39:01;;;;;;;22.30;15.73;;;7.20;99.90;;;;;;5094198;28;20034;-53
2022/02/04 09:41:27;;;;;;;21.65;15.75;;;7.20;99.90;;;;;;5112871;28;20031;-54
2022/02/04 09:43:53;;;;;;;22.35;17.02;;;7.30;99.90;;;;;;5112022;28;20387;-52
2022/02/04 09:46:20;;;;;;;20.80;16.08;;;7.40;99.90;;;;;;5111846;28;20036;-51
2022/02/04 09:48:51;;;;;;;23.10;14.10;;;7.30;99.90;;;;;;5111656;28;20024;-53
2022/02/04 09:51:21;;;;;;;19.88;12.27;;;7.30;99.90;;;;;;5111995;28;20408;-56
2022/02/04 10:18:12;;;;;;;17.63;10.13;;;7.90;99.90;;;;;;5110921;28;20037;-53
2022/02/04 10:20:40;;;;;;;17.58;10.23;;;8.00;99.90;;;;;;5092628;28;20024;-52
2022/02/04 10:23:06;;;;;;;18.88;10.10;;;8.10;99.90;;;;;;5111385;28;20020;-53
2022/02/04 10:25:42;;;;;;;17.40;9.52;;;8.00;99.90;;;;;;5111002;28;20027;-54
2022/02/04 10:28:25;;;;;;;19.13;11.15;;;8.00;99.90;;;;;;5108228;28;20023;-54
2022/02/04 10:31:04;;;;;;;18.73;9.48;;;8.20;99.90;;;;;;5107979;28;20091;-54
2022/02/04 10:33:30;;;;;;;17.17;10.15;;;;;;;;;;5092642;28;20099;-54
2022/02/04 10:35:57;;;;;;;16.45;9.07;;;8.30;99.90;;;;;;5110317;28;20464;-69
2022/02/04 10:38:38;;;;;;;18.17;9.45;;;8.60;99.90;;;;;;5091484;28;20024;-69
2022/02/04 10:41:11;;;;;;;17.77;9.80;;;8.50;99.90;;;;;;5091240;28;20071;-70
2022/02/04 10:46:12;;;;;;;17.98;9.95;;;;;;;;;;5089959;28;20059;-67
2022/02/04 11:04:33;;;;;;;17.40;8.68;;;;;;;;;;5111376;28;20032;-69
2022/02/04 11:09:58;;;;;;;16.45;8.18;;;;;;;;;;5111474;28;20343;-67
2022/02/04 11:52:38;;;;;;;17.77;13.45;;;8.20;99.90;;;;;;5095538;28;20119;-69
2022/02/04 11:55:10;;;;;;;19.00;13.13;;;8.30;99.90;;;;;;5087586;28;20020;-68
2022/02/04 11:57:58;;;;;;;19.50;12.95;;;8.20;99.90;;;;;;5102601;28;20114;-69
2022/02/04 12:00:30;;;;;;;18.55;11.88;;;8.20;99.90;;;;;;5108690;28;20099;-69
2022/02/04 12:02:56;;;;;;;18.73;13.38;;;8.20;99.90;;;;;;5086046;28;20078;-68
2022/02/04 12:05:22;;;;;;;18.30;12.48;;;8.20;99.90;;;;;;5093127;28;20042;-68
2022/02/04 12:07:50;;;;;;;17.80;11.65;;;8.20;99.90;;;;;;5107856;28;20028;-67
2022/02/04 12:10:16;;;;;;;17.83;11.82;;;8.30;99.90;;;;;;5109119;28;20047;-68
2022/02/04 12:13:00;;;;;;;18.65;13.15;;;8.30;99.90;;;;;;5108749;28;20054;-69
2022/02/04 12:18:06;;;;;;;16.52;11.85;;;8.00;99.90;;;;;;5107208;28;20081;-69
2022/02/04 12:23:41;;;;;;;16.42;10.65;;;8.00;99.90;;;;;;5095797;28;20036;-70
2022/02/04 12:26:09;;;;;;;16.02;10.23;;;8.10;99.90;;;;;;5072126;28;20524;-71
2022/02/04 12:28:48;;;;;;;14.90;9.13;;;8.20;99.90;;;;;;5072103;28;20121;-68
2022/02/04 12:31:17;;;;;;;16.13;9.82;;;8.30;99.90;;;;;;5091841;28;20024;-71
2022/02/04 12:33:49;;;;;;;15.82;8.95;;;8.40;99.90;;;;;;5095281;28;20032;-70
2022/02/04 12:36:34;;;;;;;15.27;9.50;;;8.40;99.90;;;;;;5093370;28;20020;-70
2022/02/04 12:39:03;;;;;;;15.20;8.70;;;8.40;99.90;;;;;;5094446;28;20046;-67
2022/02/04 12:41:33;;;;;;;14.52;8.95;;;8.50;99.90;;;;;;5075615;28;20487;-65
2022/02/04 12:44:02;;;;;;;14.90;8.68;;;8.50;99.90;;;;;;5093021;28;20024;-66
2022/02/04 12:46:28;;;;;;;;;;;8.40;99.90;;;;;;5093687;28;20444;-66
2022/02/04 12:49:02;;;;;;;15.00;7.05;;;8.40;99.90;;;;;;5083114;28;19957;-66
2022/02/04 12:54:33;;;;;;;13.95;7.05;;;8.50;99.90;;;;;;5105832;28;20034;-66
2022/02/04 13:08:20;;;;;;;13.02;5.30;;;;;;;;;;5063977;28;20133;-56
2022/02/04 13:10:56;;;;;;;12.40;5.40;;;;;;;;;;5064215;28;20086;-57
2022/02/04 13:13:23;;;;;;;13.40;5.85;;;;;;;;;;5045252;28;20017;-60
2022/02/04 13:15:49;;;;;;;11.32;5.60;;;;;;;;;;5045395;28;20412;-60
2022/02/04 13:18:16;;;;;;;12.68;5.50;;;;;;;;;;5058650;28;20020;-63
2022/02/04 13:20:44;;;;;;;12.82;5.55;;;;;;;;;;5070597;28;20028;-63
2022/02/04 13:23:11;;;;;;;11.02;5.30;;;;;;;;;;5068354;28;20025;-63
2022/02/04 13:25:41;;;;;;;14.52;5.90;;;;;;;;;;5065844;28;20121;-61
2022/02/04 13:28:12;;;;;;;11.75;5.35;;;;;;;;;;5067314;28;20040;-63
2022/02/04 13:30:41;;;;;;;14.60;5.82;;;;;;;;;;5046583;28;20081;-63
2022/02/04 13:33:18;;;;;;;13.75;6.20;;;;;;;;;;5063127;28;20085;-58
2022/02/04 13:35:51;;;;;;;14.23;6.75;;;;;;;;;;5057880;28;20029;-63
2022/02/04 13:41:51;;;;;;;13.32;7.07;;;8.50;99.90;;;;;;5024297;28;20026;-61
2022/02/04 13:47:00;;;;;;;16.83;8.18;;;;;;;;;;5063019;28;20073;-62
2022/02/04 13:52:07;;;;;;;;;;;7.70;99.90;;;;;;5061947;28;20508;-58
2022/02/04 13:55:40;;;;;;;;;;;7.60;99.90;;;;;;5062532;28;19912;-62
2022/02/04 13:57:37;;;;;;;15.65;8.43;;;7.50;99.90;;;;;;5044514;28;19909;-63
2022/02/04 14:02:46;;;;;;;16.10;11.00;;;7.50;99.90;;;;;;5053577;28;20029;-62
2022/02/04 14:05:14;;;;;;;17.08;13.77;;;7.60;99.90;;;;;;5052955;28;20029;-62
2022/02/04 14:07:52;;;;;;;16.80;13.95;;;7.60;99.90;;;;;;5035600;28;20029;-65
2022/02/04 14:10:55;;;;;;;16.42;12.38;;;7.70;99.90;;;;;;5054298;28;20525;-62
2022/02/04 14:13:13;;;;;;;16.23;10.80;;;7.80;99.90;;;;;;5052318;28;20028;-64
2022/02/04 14:15:45;;;;;;;17.10;10.88;;;7.80;99.90;;;;;;5053178;28;20040;-64
2022/02/04 14:18:12;;;;;;;16.60;11.07;;;7.80;99.90;;;;;;5035820;28;20028;-63
2022/02/04 14:20:40;;;;;;;15.93;9.85;;;7.80;99.90;;;;;;5052482;28;20029;-64
2022/02/04 14:23:07;;;;;;;17.50;9.75;;;7.80;99.90;;;;;;5037344;28;20566;-63
2022/02/04 14:25:43;;;;;;;15.02;9.35;;;7.90;99.90;;;;;;4337874;28;10000606;-63
2022/02/04 14:28:12;;;;;;;16.63;9.52;;;8.00;99.90;;;;;;5049720;28;20028;-63
2022/02/04 14:30:38;;;;;;;15.27;9.35;;;8.00;99.90;;;;;;5050011;28;20455;-61
2022/02/04 14:36:04;;;;;;;15.93;9.00;;;8.00;99.90;;;;;;5048495;28;20517;-63
2022/02/04 14:52:28;;;;;;;;;;;;;;;;;;;;;
2022/02/04 15:02:49;;;;;;;13.95;6.85;;;8.30;99.90;;;;;;5072956;28;20074;-62
2022/02/04 15:05:19;;;;;;;14.35;6.80;;;8.30;99.90;;;;;;5071312;28;20024;-63
2022/02/04 15:07:47;;;;;;;14.73;7.05;;;8.30;99.90;;;;;;5051600;28;20021;-63
2022/02/04 15:10:35;;;;;;;16.33;7.10;;;8.30;99.90;;;;;;5049288;28;20082;-63
2022/02/04 15:13:00;;;;;;;14.73;6.95;;;8.30;99.90;;;;;;5069823;28;20056;-63
2022/02/04 15:15:26;;;;;;;15.10;7.30;;;8.20;99.90;;;;;;5063084;28;20035;-65
2022/02/04 15:17:52;;;;;;;15.57;7.50;;;8.20;99.90;;;;;;5054293;28;20021;-63
2022/02/04 15:20:19;;;;;;;14.30;7.32;;;8.10;99.90;;;;;;5058074;28;20103;-64
2022/02/04 15:22:44;;;;;;;14.88;7.70;;;8.00;99.90;;;;;;5066098;28;20103;-63
2022/02/04 15:25:17;;;;;;;15.57;8.70;;;7.90;99.90;;;;;;5069873;28;20112;-62
2022/02/04 15:27:52;;;;;;;15.02;8.77;;;7.70;99.90;;;;;;5065543;28;20027;-63
2022/02/04 15:30:24;;;;;;;24.17;15.20;;;;;;;;;;5060449;28;20094;-62
2022/02/04 15:32:50;;;;;;;25.42;23.08;;;;;;;;;;5052522;28;20017;-64
2022/02/04 15:35:17;;;;;;;20.52;18.42;;;;;;;;;;5071958;28;20076;-61
2022/02/04 15:37:45;;;;;;;25.55;23.20;;;;;;;;;;5075552;28;20095;-60
2022/02/04 15:40:12;;;;;;;21.75;19.65;;;;;;;;;;5074425;28;20024;-62
2022/02/04 15:42:43;;;;;;;21.70;19.10;;;;;;;;;;5074460;28;20374;-61
2022/02/04 15:45:40;;;;;;;20.80;18.25;;;;;;;;;;5056408;28;20033;-61
2022/02/04 15:53:27;;;;;;;25.13;22.63;;;;;;;;;;5066817;28;20020;-60
2022/02/04 15:56:18;;;;;;;;;;;;;;;;;;;;;
2022/02/04 16:01:28;;;;;;;;;;;;;;;;;;;;;
2022/02/04 16:04:02;;;;;;;30.42;28.02;;;;;;;;;;5072085;28;20036;-59
2022/02/04 16:06:28;;;;;;;30.45;27.85;;;;;;;;;;5070689;28;20040;-61
2022/02/04 16:08:56;;;;;;;26.40;24.08;;;;;;;;;;5070469;28;20089;-59
2022/02/04 16:11:38;;;;;;;24.20;22.00;;;;;;;;;;5052771;28;20040;-62
2022/02/04 16:14:17;;;;;;;22.20;20.00;;;;;;;;;;5068156;28;20100;-61
2022/02/04 16:16:48;;;;;;;21.98;19.83;;;;;;;;;;5069246;28;20048;-62
2022/02/04 16:19:28;;;;;;;21.27;19.17;;;;;;;;;;4369934;28;10000818;-59
2022/02/04 16:28:37;;;;;;;21.25;17.90;;;6.50;99.90;;;;;;5069755;28;20013;-61
2022/02/04 16:29:55;;;;;;;21.08;16.95;;;6.50;99.90;;;;;;5075283;28;20035;-60
2022/02/04 16:32:21;;;;;;;19.20;17.10;;;6.50;99.90;;;;;;5074362;28;20025;-61
2022/02/04 16:34:56;;;;;;;20.13;15.43;;;6.50;99.90;;;;;;5049977;28;20024;-60
2022/02/04 16:37:36;;;;;;;20.80;16.45;;;6.50;99.90;;;;;;5068863;28;20227;-61
2022/02/04 16:40:05;;;;;;;20.95;18.75;;;6.60;99.90;;;;;;5047375;28;20028;-62
2022/02/04 16:42:31;;;;;;;26.25;23.77;;;6.60;99.90;;;;;;5070421;28;20028;-61
2022/02/04 16:44:57;;;;;;;25.55;22.88;;;6.60;99.90;;;;;;5072903;28;20507;-60
2022/02/04 16:47:23;;;;;;;26.23;23.73;;;6.60;99.90;;;;;;5070876;28;20222;-59
2022/02/04 16:49:49;;;;;;;28.42;22.63;;;6.60;99.90;;;;;;5071025;28;20037;-58
2022/02/04 16:52:18;;;;;;;40.03;37.13;;;6.60;99.90;;;;;;5075614;28;20029;-61
2022/02/04 16:54:44;;;;;;;26.50;24.20;;;;;;;;;;5077091;28;20175;-61
2022/02/04 16:57:10;;;;;;;24.30;22.30;;;6.50;99.90;;;;;;5079227;28;20048;-59
2022/02/04 16:59:36;;;;;;;25.50;23.40;;;;;;;;;;5079480;28;20516;-59
2022/02/04 17:02:03;;;;;;;25.65;23.60;;;;;;;;;;5077440;28;20028;-61
2022/02/04 17:04:29;;;;;;;25.88;23.77;;;;;;;;;;5076774;28;20036;-63
2022/02/04 17:07:02;;;;;;;25.08;23.08;;;;;;;;;;5059453;28;20032;-62
2022/02/04 17:09:41;;;;;;;23.70;21.80;;;;;;;;;;5078069;28;20020;-62
2022/02/04 17:12:11;;;;;;;23.88;21.88;;;;;;;;;;5059967;28;20054;-63
2022/02/04 17:14:37;;;;;;;23.27;21.35;;;;;;;;;;5077297;28;20073;-61
2022/02/04 17:17:06;;;;;;;23.25;21.30;;;;;;;;;;5078277;28;20107;-61
2022/02/04 17:19:52;;;;;;;22.83;20.83;;;;;;;;;;5054950;28;20511;-57
2022/02/04 17:22:18;;;;;;;20.50;18.60;;;;;;;;;;5056991;28;20304;-62
2022/02/04 17:24:48;;;;;;;20.23;18.33;;;;;;;;;;5057718;28;20063;-63
2022/02/04 17:27:14;;;;;;;18.42;16.60;;;;;;;;;;5058082;28;20553;-63
2022/02/04 17:29:40;;;;;;;18.42;16.60;;;;;;;;;;5056927;28;20471;-62
2022/02/04 17:32:06;;;;;;;19.25;17.35;;;;;;;;;;5056851;28;20021;-63
2022/02/04 17:34:32;;;;;;;19.13;17.23;;;;;;;;;;5055491;28;20033;-62
2022/02/04 17:36:58;;;;;;;20.00;18.05;;;;;;;;;;5056445;28;20132;-63
2022/02/04 17:39:26;;;;;;;20.30;18.23;;;;;;;;;;5056693;28;20067;-63
2022/02/04 17:41:55;;;;;;;19.80;17.90;;;;;;;;;;5055918;28;20124;-62
2022/02/04 17:44:21;;;;;;;;;;;;;;;;;;5057134;28;20037;-61
2022/02/04 17:46:48;;;;;;;17.83;16.02;;;;;;;;;;5058324;28;20008;-65
2022/02/04 17:49:26;;;;;;;17.65;15.82;;;;;;;;;;5060571;28;20124;-65
2022/02/04 17:52:01;;;;;;;19.30;16.63;;;;;;;;;;5059582;28;20516;-64
2022/02/04 17:54:47;;;;;;;17.20;15.40;;;;;;;;;;5057073;28;20032;-64
2022/02/04 17:57:19;;;;;;;17.95;16.15;;;;;;;;;;5067089;28;20024;-62
2022/02/04 18:02:30;;;;;;;17.20;14.65;;;;;;;;;;5057007;28;20037;-60
2022/02/04 18:07:41;;;;;;;18.42;15.63;;;;;;;;;;5055628;28;20048;-61
2022/02/04 18:10:08;;;;;;;17.10;15.30;;;;;;;;;;5054736;28;20408;-64
2022/02/04 18:12:36;;;;;;;16.42;14.55;;;;;;;;;;5055087;28;20060;-63
2022/02/04 18:15:02;;;;;;;18.50;15.45;;;;;;;;;;5035605;28;20386;-62
2022/02/04 18:17:28;;;;;;;16.92;15.13;;;;;;;;;;5054523;28;20036;-57
2022/02/04 18:19:55;;;;;;;17.05;15.10;;;;;;;;;;5048782;28;20036;-52
2022/02/04 18:22:21;;;;;;;17.90;16.00;;;;;;;;;;5049454;28;20560;-54
2022/02/04 18:24:47;;;;;;;17.50;15.70;;;;;;;;;;5048768;28;20029;-54
2022/02/04 18:27:13;;;;;;;18.92;16.35;;;;;;;;;;5048681;28;20096;-54
2022/02/04 18:29:44;;;;;;;18.65;16.75;;;;;;;;;;5048982;28;20083;-52
2022/02/04 18:32:10;;;;;;;18.40;16.60;;;;;;;;;;5047482;28;20025;-53
2022/02/04 18:34:36;;;;;;;18.00;16.10;;;;;;;;;;5048589;28;20040;-54
2022/02/04 18:37:04;;;;;;;18.52;16.63;;;;;;;;;;5049160;28;20024;-52
2022/02/04 18:44:43;;;;;;;18.75;16.85;;;;;;;;;;5056048;28;20043;-47
2022/02/04 18:47:22;;;;;;;18.10;16.20;;;;;;;;;;5057525;28;20044;-54
2022/02/04 18:49:52;;;;;;;18.45;16.38;;;;;;;;;;5042162;28;20104;-51
2022/02/04 18:52:37;;;;;;;20.40;17.33;;;;;;;;;;5060598;28;20139;-48
2022/02/04 18:57:33;;;;;;;18.95;17.00;;;;;;;;;;5089845;23;20472;-60
2022/02/04 19:00:04;;;;;;;18.25;16.33;;;;;;;;;;5081016;28;20040;-64
2022/02/04 19:02:32;;;;;;;17.25;15.30;;;;;;;;;;5086973;28;20035;-61
2022/02/04 19:07:34;;;;;;;16.02;11.95;;;3.80;99.90;;;;;;5086733;28;20274;-68
2022/02/04 19:10:00;;;;;;;20.40;12.20;;;3.70;99.90;;;;;;5061530;28;20029;-65
2022/02/04 19:12:33;;;;;;;15.63;11.60;;;3.80;99.90;;;;;;5098792;28;20152;-67
2022/02/04 19:15:22;;;;;;;16.08;10.68;;;3.70;99.90;;;;;;5047754;28;20572;-66
2022/02/04 19:17:50;;;;;;;16.27;10.00;;;3.70;99.90;;;;;;5053190;28;20025;-65
2022/02/04 19:23:19;;;;;;;16.73;9.77;;;3.80;99.90;;;;;;5063017;28;20044;-65
2022/02/04 19:25:44;;;;;;;15.68;8.10;;;3.80;99.90;;;;;;5066930;28;20040;-67
2022/02/04 19:28:12;;;;;;;17.20;9.95;;;3.70;99.90;;;;;;5066853;28;20172;-67
2022/02/04 19:30:47;;;;;;;17.70;9.50;;;3.80;99.90;;;;;;5066583;28;20048;-65
2022/02/04 19:33:15;;;;;;;16.42;9.35;;;3.80;99.90;;;;;;5068579;28;20024;-66
2022/02/04 19:35:41;;;;;;;18.70;9.05;;;3.90;99.90;;;;;;5072096;28;20396;-66
2022/02/04 19:38:07;;;;;;;15.35;7.82;;;3.90;99.90;;;;;;5072459;28;20115;-67
2022/02/04 19:40:33;;;;;;;24.92;8.45;;;3.90;99.90;;;;;;5071265;28;20028;-66
2022/02/04 19:42:59;;;;;;;17.13;7.40;;;4.00;99.90;;;;;;5072649;28;20032;-66
2022/02/04 19:45:30;;;;;;;14.50;7.30;;;4.00;99.90;;;;;;5071684;28;20078;-65
2022/02/04 19:48:10;;;;;;;15.38;6.78;;;4.00;99.90;;;;;;5071911;28;20055;-65
2022/02/04 19:50:47;;;;;;;15.55;7.45;;;4.00;99.90;;;;;;5071930;28;20024;-66
2022/02/04 20:25:05;;;;;;;20.15;8.00;;;3.90;99.90;;;;;;5070629;28;20690;-67
2022/02/04 20:27:33;;;;;;;14.48;6.80;;;4.00;99.90;;;;;;5071382;28;20124;-64
2022/02/04 20:30:00;;;;;;;18.05;8.20;;;3.90;99.90;;;;;;5071230;28;20036;-67